Time;durP1;ratioP1;P1;durP2;ratioP2;P2;SDS_P1;SDS_P2;PMS_P1;PMS_P2;Temp;Humidity;BMP_temperature;BMP_pressure;BME280_temperature;BME280_humidity;BME280_pressure;Samples;Min_cycle;Max_cycle;Signal;HPM_P1;HPM_P2
2021/05/27 00:02:18;;;;;;;13.93;6.28;;;10.00;99.90;;;;;;5022303;28;20044;-65
2021/05/27 00:04:43;;;;;;;14.27;6.38;;;10.10;99.90;;;;;;5027434;28;20124;-64
2021/05/27 00:07:09;;;;;;;14.80;7.00;;;10.00;99.90;;;;;;5024364;28;20342;-64
2021/05/27 00:09:35;;;;;;;12.98;7.07;;;10.10;99.90;;;;;;5033518;28;20073;-64
2021/05/27 00:12:02;;;;;;;18.98;7.25;;;10.00;99.90;;;;;;5027344;28;20123;-64
2021/05/27 00:14:27;;;;;;;13.98;6.32;;;10.10;99.90;;;;;;5026135;28;20041;-64
2021/05/27 00:16:54;;;;;;;16.73;6.70;;;10.10;99.90;;;;;;5031272;28;20048;-64
2021/05/27 00:19:20;;;;;;;16.00;6.90;;;10.00;99.90;;;;;;5029971;28;20068;-64
2021/05/27 00:21:46;;;;;;;14.68;6.20;;;10.00;99.90;;;;;;5028200;28;20509;-64
2021/05/27 00:24:13;;;;;;;11.40;7.03;;;10.00;99.90;;;;;;5023963;28;20104;-64
2021/05/27 00:26:40;;;;;;;12.13;6.18;;;10.00;99.90;;;;;;5034562;28;20041;-64
2021/05/27 00:29:08;;;;;;;20.17;7.22;;;10.00;99.90;;;;;;5025695;28;20044;-64
2021/05/27 00:31:34;;;;;;;14.95;6.00;;;10.00;99.90;;;;;;5033554;28;20029;-64
2021/05/27 00:34:00;;;;;;;10.60;6.50;;;10.10;99.90;;;;;;5022301;28;20128;-64
2021/05/27 00:36:26;;;;;;;11.82;6.28;;;10.10;99.90;;;;;;5036368;28;20140;-64
2021/05/27 00:38:51;;;;;;;15.98;6.60;;;10.00;99.90;;;;;;5024863;28;20584;-64
2021/05/27 00:41:17;;;;;;;14.85;6.25;;;10.00;99.90;;;;;;5034411;28;20072;-64
2021/05/27 00:43:43;;;;;;;14.30;6.43;;;10.10;99.90;;;;;;5029264;28;20057;-64
2021/05/27 00:46:09;;;;;;;13.05;5.93;;;10.10;99.90;;;;;;5037537;28;20511;-64
2021/05/27 00:51:19;;;;;;;13.48;5.97;;;10.00;99.90;;;;;;5032172;28;20045;-65
2021/05/27 00:53:45;;;;;;;12.80;5.93;;;10.00;99.90;;;;;;5022363;28;20045;-65
2021/05/27 00:56:11;;;;;;;12.27;6.57;;;10.00;99.90;;;;;;5031349;28;20049;-65
2021/05/27 00:58:38;;;;;;;13.07;7.03;;;10.00;99.90;;;;;;5030968;28;20043;-64
2021/05/27 01:01:04;;;;;;;18.58;6.90;;;10.00;99.90;;;;;;5024098;28;20034;-65
2021/05/27 01:03:30;;;;;;;15.43;7.43;;;10.10;99.90;;;;;;5029862;28;20127;-65
2021/05/27 01:05:55;;;;;;;13.35;6.93;;;10.10;99.90;;;;;;5024370;28;20445;-65
2021/05/27 01:08:21;;;;;;;16.85;6.95;;;10.00;99.90;;;;;;5029772;28;20107;-65
2021/05/27 01:10:47;;;;;;;13.13;6.97;;;10.00;99.90;;;;;;5030715;28;20044;-65
2021/05/27 01:13:12;;;;;;;17.17;7.22;;;10.10;99.90;;;;;;5032509;28;20402;-65
2021/05/27 01:15:39;;;;;;;13.20;6.45;;;10.00;99.90;;;;;;5023379;28;20414;-65
2021/05/27 01:18:12;;;;;;;15.65;6.22;;;10.10;99.90;;;;;;5028347;28;20042;-65
2021/05/27 01:20:40;;;;;;;16.88;6.57;;;10.00;99.90;;;;;;5027355;28;20091;-65
2021/05/27 01:23:09;;;;;;;11.80;5.95;;;10.10;99.90;;;;;;5028758;28;20176;-64
2021/05/27 01:25:37;;;;;;;13.27;6.68;;;10.00;99.90;;;;;;5015842;28;20045;-64
2021/05/27 01:28:03;;;;;;;16.48;7.63;;;10.00;99.90;;;;;;5032279;28;20041;-64
2021/05/27 01:30:29;;;;;;;15.63;7.78;;;10.10;99.90;;;;;;5026313;28;20040;-65
2021/05/27 01:32:55;;;;;;;15.23;6.78;;;10.00;99.90;;;;;;5028812;28;20504;-64
2021/05/27 01:35:24;;;;;;;16.52;6.25;;;10.00;99.90;;;;;;5025898;28;20041;-64
2021/05/27 01:37:50;;;;;;;10.60;6.43;;;10.10;99.90;;;;;;5035026;28;20411;-64
2021/05/27 01:40:19;;;;;;;12.07;5.53;;;10.00;99.90;;;;;;5027617;28;20047;-64
2021/05/27 01:42:45;;;;;;;15.07;6.10;;;10.00;99.90;;;;;;5026434;28;20052;-64
2021/05/27 01:45:11;;;;;;;14.45;6.47;;;10.00;99.90;;;;;;5030334;28;20477;-64
2021/05/27 01:47:37;;;;;;;11.20;6.03;;;10.10;99.90;;;;;;5029245;28;20083;-64
2021/05/27 01:50:09;;;;;;;17.42;6.55;;;10.10;99.90;;;;;;5031256;28;20449;-64
2021/05/27 01:52:35;;;;;;;12.50;5.85;;;10.10;99.90;;;;;;5016984;28;20030;-65
2021/05/27 01:55:02;;;;;;;8.73;4.47;;;10.00;99.90;;;;;;5031456;28;20451;-64
2021/05/27 01:57:27;;;;;;;18.60;6.70;;;10.00;99.90;;;;;;5023235;28;20084;-64
2021/05/27 01:59:53;;;;;;;13.77;6.07;;;10.00;99.90;;;;;;5028258;28;20095;-64
2021/05/27 02:02:19;;;;;;;14.23;5.82;;;10.10;99.90;;;;;;5017303;28;20053;-65
2021/05/27 02:04:45;;;;;;;11.88;5.45;;;10.10;99.90;;;;;;5030329;28;20207;-64
2021/05/27 02:07:13;;;;;;;14.45;5.85;;;10.10;99.90;;;;;;5020834;28;20168;-65
2021/05/27 02:09:39;;;;;;;15.75;6.40;;;10.00;99.90;;;;;;5028034;28;20041;-64
2021/05/27 02:12:06;;;;;;;13.75;5.68;;;10.10;99.90;;;;;;5026733;28;20076;-64
2021/05/27 02:14:33;;;;;;;13.70;5.60;;;10.00;99.90;;;;;;5026651;28;20041;-64
2021/05/27 02:16:59;;;;;;;11.65;5.63;;;10.00;99.90;;;;;;5025423;28;23495;-64
2021/05/27 02:19:24;;;;;;;14.43;5.78;;;10.10;99.90;;;;;;5030629;28;20334;-65
2021/05/27 02:21:51;;;;;;;11.60;5.18;;;10.10;99.90;;;;;;5034145;28;20037;-64
2021/05/27 02:24:17;;;;;;;17.65;6.22;;;10.00;99.90;;;;;;5031322;28;20382;-64
2021/05/27 02:26:43;;;;;;;13.52;5.00;;;10.10;99.90;;;;;;5029746;28;20033;-64
2021/05/27 02:29:09;;;;;;;17.23;5.60;;;10.00;99.90;;;;;;5027578;28;20108;-65
2021/05/27 02:31:37;;;;;;;11.10;5.75;;;10.10;99.90;;;;;;5030840;28;20045;-64
2021/05/27 02:34:03;;;;;;;9.68;6.30;;;10.10;99.90;;;;;;5026726;28;20075;-64
2021/05/27 02:36:29;;;;;;;10.27;5.38;;;10.00;99.90;;;;;;5033331;28;20053;-64
2021/05/27 02:38:56;;;;;;;12.07;5.60;;;10.10;99.90;;;;;;5023766;28;20418;-64
2021/05/27 02:41:22;;;;;;;14.40;5.93;;;10.10;99.90;;;;;;5029208;28;20068;-64
2021/05/27 02:43:48;;;;;;;18.08;6.05;;;10.10;99.90;;;;;;5026065;28;20041;-64
2021/05/27 02:46:14;;;;;;;12.65;5.43;;;10.10;99.90;;;;;;5028775;28;20070;-64
2021/05/27 02:48:40;;;;;;;14.13;6.05;;;10.10;99.90;;;;;;5023753;28;20039;-64
2021/05/27 02:51:06;;;;;;;14.50;6.18;;;10.00;99.90;;;;;;5030121;28;20037;-64
2021/05/27 02:53:32;;;;;;;12.05;5.20;;;10.00;99.90;;;;;;5021781;28;20088;-64
2021/05/27 02:55:58;;;;;;;10.43;5.15;;;10.00;99.90;;;;;;5030962;28;20133;-64
2021/05/27 02:58:23;;;;;;;13.75;5.47;;;10.00;99.90;;;;;;5023064;28;20038;-64
2021/05/27 03:00:49;;;;;;;12.90;5.65;;;10.00;99.90;;;;;;5025430;28;20052;-64
2021/05/27 03:03:17;;;;;;;10.10;5.03;;;10.00;99.90;;;;;;5031536;28;20087;-64
2021/05/27 03:05:44;;;;;;;13.07;5.38;;;10.00;99.90;;;;;;5025206;28;20378;-64
2021/05/27 03:08:09;;;;;;;12.43;4.45;;;10.00;99.90;;;;;;5029878;28;20044;-64
2021/05/27 03:10:35;;;;;;;9.55;4.85;;;9.90;99.90;;;;;;5017042;28;20140;-64
2021/05/27 03:13:01;;;;;;;10.10;4.05;;;10.00;99.90;;;;;;5035159;28;20044;-64
2021/05/27 03:15:29;;;;;;;9.90;4.30;;;9.90;99.90;;;;;;5024433;28;20162;-64
2021/05/27 03:18:00;;;;;;;12.20;4.07;;;9.90;99.90;;;;;;5031121;28;20092;-64
2021/05/27 03:20:25;;;;;;;9.40;4.30;;;9.90;99.90;;;;;;5027174;28;20034;-64
2021/05/27 03:22:51;;;;;;;7.90;3.83;;;9.90;99.90;;;;;;5031168;28;20052;-64
2021/05/27 03:25:17;;;;;;;9.25;3.60;;;9.90;99.90;;;;;;5029095;28;20033;-64
2021/05/27 03:27:43;;;;;;;9.05;4.10;;;9.90;99.90;;;;;;5029432;28;20052;-64
2021/05/27 03:30:10;;;;;;;9.50;4.15;;;9.90;99.90;;;;;;5022314;28;20397;-64
2021/05/27 03:32:35;;;;;;;8.85;3.88;;;9.90;99.90;;;;;;5032483;28;20041;-64
2021/05/27 03:35:01;;;;;;;7.88;3.70;;;9.90;99.90;;;;;;5026254;28;21707;-64
2021/05/27 03:37:30;;;;;;;9.20;4.28;;;9.90;99.90;;;;;;5031315;28;20522;-64
2021/05/27 03:42:46;;;;;;;8.00;3.42;;;9.90;99.90;;;;;;5039276;28;20111;-64
2021/05/27 03:45:17;;;;;;;6.47;3.55;;;9.90;99.90;;;;;;5027643;28;20052;-64
2021/05/27 03:47:43;;;;;;;7.03;3.45;;;9.90;99.90;;;;;;5033479;28;20486;-64
2021/05/27 03:50:14;;;;;;;7.72;3.13;;;10.00;99.90;;;;;;5038802;28;20061;-64
2021/05/27 03:52:41;;;;;;;5.50;2.95;;;9.90;99.90;;;;;;5032469;28;20051;-64
2021/05/27 03:55:09;;;;;;;7.95;3.30;;;9.90;99.90;;;;;;5031186;28;20034;-64
2021/05/27 03:57:35;;;;;;;8.52;3.15;;;9.90;99.90;;;;;;5027090;28;20069;-64
2021/05/27 04:02:47;;;;;;;5.22;2.80;;;9.90;99.90;;;;;;5026246;28;20041;-64
2021/05/27 04:07:58;;;;;;;;;;;9.90;99.90;;;;;;5030449;28;20070;-64
2021/05/27 04:10:26;;;;;;;10.02;3.50;;;9.80;99.90;;;;;;5029907;28;20328;-64
2021/05/27 04:12:53;;;;;;;6.25;2.97;;;9.80;99.90;;;;;;5026534;28;20481;-64
2021/05/27 04:15:27;;;;;;;8.27;3.20;;;9.80;99.90;;;;;;5033939;28;20041;-64
2021/05/27 04:18:02;;;;;;;11.52;4.10;;;9.90;99.90;;;;;;5024682;28;20041;-64
2021/05/27 04:20:54;;;;;;;6.35;3.45;;;9.90;99.90;;;;;;5027462;28;20091;-64
2021/05/27 04:23:39;;;;;;;7.22;3.33;;;9.80;99.90;;;;;;5024125;28;20361;-64
2021/05/27 04:26:13;;;;;;;8.15;3.67;;;9.80;99.90;;;;;;5030641;28;20057;-64
2021/05/27 04:28:41;;;;;;;9.80;4.13;;;9.80;99.90;;;;;;5023694;28;20054;-64
2021/05/27 04:33:56;;;;;;;11.45;3.67;;;9.80;99.90;;;;;;5028726;28;20067;-64
2021/05/27 04:36:23;;;;;;;14.25;4.20;;;9.90;99.90;;;;;;5036258;28;20507;-64
2021/05/27 04:38:50;;;;;;;9.35;3.60;;;9.80;99.90;;;;;;5026964;28;20406;-64
2021/05/27 04:41:16;;;;;;;7.45;3.05;;;9.90;99.90;;;;;;5031739;28;20052;-64
2021/05/27 04:43:43;;;;;;;7.55;3.63;;;9.80;99.90;;;;;;5027141;28;20063;-64
2021/05/27 04:46:09;;;;;;;9.18;3.33;;;9.80;99.90;;;;;;5026685;28;20076;-64
2021/05/27 04:48:36;;;;;;;9.73;4.00;;;9.80;99.90;;;;;;5030988;28;20091;-64
2021/05/27 04:51:02;;;;;;;8.10;3.58;;;9.80;99.90;;;;;;5035203;28;20049;-64
2021/05/27 04:53:28;;;;;;;7.28;3.25;;;9.80;99.90;;;;;;5030827;28;20059;-64
2021/05/27 04:55:55;;;;;;;6.35;2.70;;;9.90;99.90;;;;;;5027902;28;20105;-64
2021/05/27 04:58:21;;;;;;;10.32;4.40;;;9.90;99.90;;;;;;5031929;28;20095;-64
2021/05/27 05:00:48;;;;;;;8.35;3.35;;;9.90;99.90;;;;;;5031056;28;20090;-64
2021/05/27 05:03:14;;;;;;;9.32;3.58;;;9.90;99.90;;;;;;5023384;28;20040;-64
2021/05/27 05:05:40;;;;;;;8.60;3.55;;;9.90;99.90;;;;;;5033816;28;20087;-63
2021/05/27 05:08:07;;;;;;;12.27;3.85;;;9.90;99.90;;;;;;5034303;28;20048;-64
2021/05/27 05:10:34;;;;;;;9.70;4.00;;;10.00;99.90;;;;;;5017627;28;20518;-63
2021/05/27 05:13:00;;;;;;;14.77;3.97;;;10.00;99.90;;;;;;5028528;28;20037;-63
2021/05/27 05:15:32;;;;;;;8.57;3.65;;;9.90;99.90;;;;;;5035602;28;20037;-64
2021/05/27 05:18:00;;;;;;;11.70;3.83;;;9.90;99.90;;;;;;5032986;28;20073;-64
2021/05/27 05:20:30;;;;;;;9.38;4.25;;;9.90;99.90;;;;;;5025276;28;20425;-64
2021/05/27 05:22:56;;;;;;;8.07;3.97;;;10.00;99.90;;;;;;5033050;28;20513;-63
2021/05/27 05:25:24;;;;;;;10.50;3.58;;;9.90;99.90;;;;;;5034408;28;20125;-64
2021/05/27 05:27:50;;;;;;;9.68;3.25;;;10.00;99.90;;;;;;5028688;28;20064;-64
2021/05/27 05:30:17;;;;;;;7.28;3.65;;;10.00;99.90;;;;;;5021882;28;20137;-64
2021/05/27 05:32:43;;;;;;;8.55;3.88;;;10.00;99.90;;;;;;5030813;28;20042;-64
2021/05/27 05:35:12;;;;;;;12.77;3.72;;;10.00;99.90;;;;;;5023003;28;20048;-64
2021/05/27 05:37:39;;;;;;;8.93;3.85;;;10.00;99.90;;;;;;5031876;28;20067;-64
2021/05/27 05:40:08;;;;;;;11.27;4.10;;;10.00;99.90;;;;;;5030324;28;20041;-64
2021/05/27 05:42:34;;;;;;;10.23;4.15;;;10.00;99.90;;;;;;5036949;28;20413;-64
2021/05/27 05:45:01;;;;;;;10.30;3.78;;;10.10;99.90;;;;;;5026929;28;20053;-64
2021/05/27 05:47:27;;;;;;;11.98;4.22;;;10.10;99.90;;;;;;5026987;28;20050;-65
2021/05/27 05:49:52;;;;;;;8.52;3.72;;;10.10;99.90;;;;;;5029029;28;20412;-64
2021/05/27 05:52:18;;;;;;;8.15;4.03;;;10.10;99.90;;;;;;5031935;28;20036;-64
2021/05/27 05:54:44;;;;;;;14.45;3.95;;;10.10;99.90;;;;;;5030784;28;20098;-64
2021/05/27 05:57:10;;;;;;;12.30;4.18;;;10.10;99.90;;;;;;5022851;28;20072;-64
2021/05/27 05:59:35;;;;;;;10.77;4.28;;;10.10;99.90;;;;;;5020656;28;20041;-64
2021/05/27 06:02:04;;;;;;;9.73;3.80;;;10.00;99.90;;;;;;5030569;28;20060;-64
2021/05/27 06:04:33;;;;;;;8.77;4.47;;;10.10;99.90;;;;;;5025019;28;20051;-64
2021/05/27 06:06:59;;;;;;;13.57;4.57;;;10.10;99.90;;;;;;5031264;28;20047;-64
2021/05/27 06:09:25;;;;;;;13.40;4.38;;;10.20;99.90;;;;;;5023286;28;20220;-64
2021/05/27 06:11:52;;;;;;;9.82;4.20;;;10.10;99.90;;;;;;5028290;28;20469;-64
2021/05/27 06:14:21;;;;;;;13.88;4.68;;;10.20;99.90;;;;;;5022269;28;20029;-64
2021/05/27 06:16:48;;;;;;;12.20;4.10;;;10.20;99.90;;;;;;5030809;28;20585;-64
2021/05/27 06:19:14;;;;;;;12.30;4.18;;;10.20;99.90;;;;;;5020590;28;20045;-64
2021/05/27 06:21:40;;;;;;;11.25;4.05;;;10.20;99.90;;;;;;5033435;28;20736;-64
2021/05/27 06:24:08;;;;;;;13.73;4.60;;;10.20;99.90;;;;;;5031526;28;20056;-64
2021/05/27 06:26:34;;;;;;;11.07;4.07;;;10.20;99.90;;;;;;5036648;28;20545;-64
2021/05/27 06:29:00;;;;;;;13.93;3.70;;;10.20;99.90;;;;;;5035975;28;20180;-64
2021/05/27 06:31:26;;;;;;;14.23;4.93;;;10.20;99.90;;;;;;5023527;28;20040;-64
2021/05/27 06:33:52;;;;;;;14.95;5.07;;;10.20;99.90;;;;;;5030307;28;20417;-64
2021/05/27 06:36:18;;;;;;;13.77;5.13;;;10.20;99.90;;;;;;5025258;28;20049;-64
2021/05/27 06:38:44;;;;;;;10.50;4.38;;;10.20;99.90;;;;;;5023449;28;20557;-64
2021/05/27 06:41:10;;;;;;;14.63;5.20;;;10.30;99.90;;;;;;5024794;28;20037;-64
2021/05/27 06:43:36;;;;;;;11.25;4.60;;;10.20;99.90;;;;;;5031948;28;20041;-64
2021/05/27 06:46:02;;;;;;;14.20;4.90;;;10.20;99.90;;;;;;5027994;28;20481;-64
2021/05/27 06:48:28;;;;;;;13.07;4.90;;;10.20;99.90;;;;;;5032431;28;20038;-64
2021/05/27 06:50:57;;;;;;;13.82;4.85;;;10.20;99.90;;;;;;5027865;28;20211;-64
2021/05/27 06:53:23;;;;;;;16.10;5.07;;;10.30;99.90;;;;;;5033918;28;20081;-64
2021/05/27 06:55:49;;;;;;;18.15;5.07;;;10.30;99.90;;;;;;5020847;28;20041;-64
2021/05/27 06:58:17;;;;;;;10.25;4.75;;;10.30;99.90;;;;;;5035686;28;20041;-64
2021/05/27 07:00:43;;;;;;;12.52;5.35;;;10.40;99.90;;;;;;5026291;28;20116;-64
2021/05/27 07:03:09;;;;;;;16.08;5.80;;;10.40;99.90;;;;;;5030427;28;20049;-63
2021/05/27 07:05:35;;;;;;;11.93;5.35;;;10.40;99.90;;;;;;5029039;28;20037;-63
2021/05/27 07:08:02;;;;;;;15.25;5.40;;;10.40;99.90;;;;;;5029403;28;20072;-63
2021/05/27 07:10:30;;;;;;;11.13;4.70;;;10.40;99.90;;;;;;5040989;28;20041;-63
2021/05/27 07:12:59;;;;;;;14.77;5.30;;;10.40;99.90;;;;;;5025238;28;20042;-63
2021/05/27 07:15:26;;;;;;;15.48;5.38;;;10.40;99.90;;;;;;5027650;28;20041;-63
2021/05/27 07:17:53;;;;;;;13.25;5.63;;;10.40;99.90;;;;;;5023187;28;20198;-64
2021/05/27 07:20:20;;;;;;;14.55;5.82;;;10.40;99.90;;;;;;5026513;28;20114;-64
2021/05/27 07:22:47;;;;;;;11.65;4.88;;;10.40;99.90;;;;;;5022829;28;20049;-63
2021/05/27 07:25:14;;;;;;;17.23;5.90;;;10.40;99.90;;;;;;5032192;28;20558;-63
2021/05/27 07:27:41;;;;;;;18.98;6.15;;;10.40;99.90;;;;;;5028212;28;20369;-63
2021/05/27 07:30:08;;;;;;;13.77;5.20;;;10.40;99.90;;;;;;5026109;28;20061;-64
2021/05/27 07:32:34;;;;;;;19.58;6.13;;;10.40;99.90;;;;;;5019914;28;20057;-63
2021/05/27 07:35:00;;;;;;;21.70;6.28;;;10.40;99.90;;;;;;5036797;28;20063;-63
2021/05/27 07:37:26;;;;;;;17.83;6.75;;;10.40;99.90;;;;;;5021899;28;20053;-63
2021/05/27 07:39:52;;;;;;;17.08;5.45;;;10.50;99.90;;;;;;5029124;28;20504;-63
2021/05/27 07:42:18;;;;;;;13.23;5.53;;;10.50;99.90;;;;;;5032074;28;20060;-62
2021/05/27 07:44:43;;;;;;;11.13;5.20;;;10.60;99.90;;;;;;5030553;28;20400;-63
2021/05/27 07:47:09;;;;;;;16.67;6.05;;;10.60;99.90;;;;;;5029590;28;20050;-63
2021/05/27 07:49:35;;;;;;;16.38;5.75;;;10.70;99.90;;;;;;5023282;28;20045;-64
2021/05/27 07:52:01;;;;;;;9.80;5.20;;;10.80;99.90;;;;;;5039667;28;20148;-64
2021/05/27 07:54:28;;;;;;;10.30;4.40;;;10.80;99.90;;;;;;5022686;28;20123;-64
2021/05/27 07:56:54;;;;;;;9.57;4.57;;;10.80;99.90;;;;;;5024437;28;20053;-63
2021/05/27 07:59:20;;;;;;;9.90;4.82;;;10.80;99.90;;;;;;5026720;28;20117;-63
2021/05/27 08:01:46;;;;;;;13.35;5.00;;;10.70;99.90;;;;;;5030950;28;20038;-63
2021/05/27 08:04:12;;;;;;;12.40;4.90;;;10.70;99.90;;;;;;5016385;28;20453;-63
2021/05/27 08:06:38;;;;;;;15.05;4.95;;;10.70;99.90;;;;;;5033233;28;20140;-63
2021/05/27 08:09:07;;;;;;;12.57;5.90;;;10.70;99.90;;;;;;5025997;28;20094;-64
2021/05/27 08:11:34;;;;;;;11.45;5.60;;;10.80;99.90;;;;;;5030392;28;20034;-65
2021/05/27 08:14:00;;;;;;;11.15;4.82;;;10.80;99.90;;;;;;5023881;28;20041;-63
2021/05/27 08:16:26;;;;;;;12.82;5.47;;;10.80;99.90;;;;;;5029153;28;20048;-63
2021/05/27 08:18:51;;;;;;;7.70;4.65;;;10.80;99.90;;;;;;5016476;28;22605;-64
2021/05/27 08:21:17;;;;;;;16.63;5.47;;;10.80;99.90;;;;;;5028320;28;20132;-63
2021/05/27 08:23:44;;;;;;;14.40;5.90;;;10.80;99.90;;;;;;5026161;28;20052;-65
2021/05/27 08:26:10;;;;;;;11.07;4.68;;;10.90;99.90;;;;;;5031141;28;20096;-63
2021/05/27 08:28:36;;;;;;;10.63;4.38;;;10.90;99.90;;;;;;5036487;28;20448;-63
2021/05/27 08:31:03;;;;;;;12.63;4.97;;;11.00;99.90;;;;;;5031197;28;20052;-63
2021/05/27 08:33:30;;;;;;;10.35;4.03;;;11.00;99.90;;;;;;5032621;28;20080;-63
2021/05/27 08:35:56;;;;;;;10.80;4.00;;;10.90;99.90;;;;;;5028169;28;20041;-63
2021/05/27 08:38:22;;;;;;;11.35;3.67;;;10.90;99.90;;;;;;5035569;28;20126;-62
2021/05/27 08:40:48;;;;;;;9.05;3.85;;;10.90;99.90;;;;;;5024359;28;20069;-63
2021/05/27 08:43:14;;;;;;;8.52;3.13;;;10.90;99.90;;;;;;5037353;28;20125;-63
2021/05/27 08:45:44;;;;;;;8.27;3.13;;;10.90;99.90;;;;;;5024991;28;20045;-62
2021/05/27 08:48:11;;;;;;;7.22;3.55;;;10.90;99.90;;;;;;5034341;28;20041;-62
2021/05/27 08:50:45;;;;;;;12.30;3.72;;;10.90;99.90;;;;;;5020566;28;20042;-63
2021/05/27 08:53:13;;;;;;;11.00;3.70;;;11.00;99.90;;;;;;5035737;28;20060;-64
2021/05/27 08:55:39;;;;;;;10.23;3.65;;;11.20;99.90;;;;;;5025887;28;20076;-63
2021/05/27 08:58:05;;;;;;;9.60;3.70;;;11.40;99.90;;;;;;5034114;28;20043;-64
2021/05/27 09:00:31;;;;;;;10.52;3.05;;;11.60;99.90;;;;;;5026021;28;20036;-63
2021/05/27 09:03:02;;;;;;;7.72;2.92;;;11.70;99.90;;;;;;5040157;28;20044;-63
2021/05/27 09:05:33;;;;;;;8.40;3.30;;;12.00;99.90;;;;;;5025205;28;20056;-63
2021/05/27 09:07:59;;;;;;;14.20;3.55;;;12.10;99.90;;;;;;5031104;28;20429;-63
2021/05/27 09:10:45;;;;;;;10.13;3.17;;;12.10;99.90;;;;;;5042213;28;20455;-63
2021/05/27 09:13:20;;;;;;;9.68;2.90;;;12.20;99.90;;;;;;5031211;28;20359;-64
2021/05/27 09:15:48;;;;;;;9.30;2.80;;;12.10;99.90;;;;;;5024872;28;20037;-64
2021/05/27 09:18:29;;;;;;;10.23;3.00;;;12.10;99.90;;;;;;5031525;28;20471;-64
2021/05/27 09:20:55;;;;;;;12.52;2.72;;;12.10;99.90;;;;;;5031997;28;20133;-64
2021/05/27 09:23:21;;;;;;;8.13;2.35;;;12.10;99.90;;;;;;5036445;28;20081;-64
2021/05/27 09:25:50;;;;;;;6.43;2.85;;;12.20;99.90;;;;;;5036514;28;20048;-65
2021/05/27 09:28:43;;;;;;;6.93;2.30;;;12.30;99.90;;;;;;5021904;28;20328;-65
2021/05/27 09:31:12;;;;;;;9.13;2.63;;;12.40;99.90;;;;;;5030228;28;20143;-65
2021/05/27 09:33:40;;;;;;;8.85;2.47;;;12.50;99.90;;;;;;5028731;28;20439;-65
2021/05/27 09:36:06;;;;;;;7.88;2.22;;;12.70;99.90;;;;;;5035038;28;20120;-65
2021/05/27 09:38:34;;;;;;;12.10;2.80;;;12.80;99.90;;;;;;5023833;28;20141;-65
2021/05/27 09:41:23;;;;;;;10.40;2.50;;;12.80;99.90;;;;;;5033680;28;20081;-65
2021/05/27 09:44:13;;;;;;;9.07;2.90;;;12.80;99.90;;;;;;5020875;28;20041;-65
2021/05/27 09:46:53;;;;;;;9.93;2.58;;;12.90;99.90;;;;;;5031036;28;20044;-65
2021/05/27 09:49:23;;;;;;;13.93;5.60;;;12.90;99.90;;;;;;5027428;28;20122;-65
2021/05/27 09:51:55;;;;;;;10.32;2.95;;;13.10;99.90;;;;;;5031313;28;20044;-65
2021/05/27 09:54:21;;;;;;;8.45;2.45;;;13.20;99.90;;;;;;5029134;28;20046;-65
2021/05/27 09:56:48;;;;;;;6.45;2.20;;;13.20;99.90;;;;;;5025205;28;20060;-65
2021/05/27 09:59:16;;;;;;;7.40;2.10;;;13.10;99.90;;;;;;5024370;28;20034;-65
2021/05/27 10:02:14;;;;;;;7.90;2.28;;;13.00;99.90;;;;;;5029879;28;20502;-65
2021/05/27 10:04:55;;;;;;;8.43;1.98;;;12.80;99.90;;;;;;5033484;28;20044;-65
2021/05/27 10:07:35;;;;;;;8.18;1.77;;;12.70;99.90;;;;;;5032018;28;20095;-64
2021/05/27 10:10:01;;;;;;;10.07;2.08;;;12.50;99.90;;;;;;5021826;28;20041;-65
2021/05/27 10:12:27;;;;;;;11.07;3.60;;;12.40;99.90;;;;;;5028791;28;20489;-65
2021/05/27 10:14:56;;;;;;;8.23;2.20;;;12.30;99.90;;;;;;5022935;28;20064;-65
2021/05/27 10:17:21;;;;;;;12.68;3.25;;;12.30;99.90;;;;;;5034044;28;20041;-65
2021/05/27 10:19:49;;;;;;;6.40;2.03;;;12.30;99.90;;;;;;5024218;28;20106;-65
2021/05/27 10:22:15;;;;;;;11.25;2.13;;;12.40;99.90;;;;;;5020978;28;20557;-65
2021/05/27 10:24:42;;;;;;;10.50;2.67;;;12.30;99.90;;;;;;5019136;28;20111;-65
2021/05/27 10:27:08;;;;;;;10.32;2.65;;;12.40;99.90;;;;;;5027033;28;20045;-65
2021/05/27 10:29:34;;;;;;;7.65;2.53;;;12.40;99.90;;;;;;5029628;28;20059;-65
2021/05/27 10:32:01;;;;;;;10.55;2.65;;;12.40;99.90;;;;;;5027421;28;20075;-65
2021/05/27 10:34:45;;;;;;;13.18;2.78;;;12.40;99.90;;;;;;5026070;28;20050;-65
2021/05/27 10:37:12;;;;;;;10.73;2.60;;;12.40;99.90;;;;;;5029121;28;20116;-65
2021/05/27 10:39:39;;;;;;;9.23;2.95;;;12.40;99.90;;;;;;5017715;28;20553;-65
2021/05/27 10:42:06;;;;;;;14.13;3.70;;;12.50;99.90;;;;;;5027662;28;20112;-65
2021/05/27 10:44:32;;;;;;;6.88;2.42;;;12.50;99.90;;;;;;5026150;28;20044;-65
2021/05/27 10:46:58;;;;;;;7.72;2.20;;;12.60;99.90;;;;;;5026526;28;20117;-65
2021/05/27 10:49:40;;;;;;;9.10;2.30;;;12.70;99.90;;;;;;5032685;28;20131;-65
2021/05/27 10:52:24;;;;;;;8.80;2.97;;;12.90;99.90;;;;;;5027051;28;20167;-65
2021/05/27 10:54:50;;;;;;;6.97;2.55;;;13.30;99.90;;;;;;5020758;28;20060;-65
2021/05/27 10:57:35;;;;;;;9.13;2.45;;;13.60;99.90;;;;;;5039289;28;20049;-65
2021/05/27 11:00:00;;;;;;;12.23;2.33;;;13.70;99.90;;;;;;5023136;28;20140;-65
2021/05/27 11:02:26;;;;;;;9.93;2.60;;;13.70;99.90;;;;;;5031158;28;20137;-65
2021/05/27 11:05:15;;;;;;;10.43;2.10;;;13.60;99.90;;;;;;5035998;28;20045;-65
2021/05/27 11:07:41;;;;;;;12.95;2.70;;;13.50;99.90;;;;;;5025024;28;20045;-64
2021/05/27 11:10:28;;;;;;;7.55;2.45;;;13.50;99.90;;;;;;5026619;28;20397;-65
2021/05/27 11:13:05;;;;;;;8.57;2.80;;;13.60;99.90;;;;;;5031044;28;20084;-64
2021/05/27 11:15:31;;;;;;;9.32;3.35;;;13.80;99.90;;;;;;5021045;28;20455;-64
2021/05/27 11:18:06;;;;;;;7.93;2.40;;;14.00;99.90;;;;;;5024962;28;20041;-64
2021/05/27 11:20:34;;;;;;;7.38;2.20;;;13.80;99.90;;;;;;5032603;28;20154;-64
2021/05/27 11:23:21;;;;;;;5.95;1.77;;;13.60;99.90;;;;;;5026016;28;20053;-64
2021/05/27 11:25:47;;;;;;;6.28;1.23;;;13.40;99.90;;;;;;5016505;28;20449;-64
2021/05/27 11:28:13;;;;;;;6.75;0.90;;;13.40;99.90;;;;;;5032807;28;20049;-64
2021/05/27 11:30:39;;;;;;;7.72;1.42;;;13.40;99.90;;;;;;5032038;28;20104;-65
2021/05/27 11:33:14;;;;;;;6.72;1.50;;;13.70;99.90;;;;;;5033871;28;20571;-65
2021/05/27 11:35:45;;;;;;;10.55;1.65;;;13.80;99.90;;;;;;5026702;28;20139;-64
2021/05/27 11:38:16;;;;;;;5.88;1.50;;;13.90;99.30;;;;;;5027062;28;20052;-65
2021/05/27 11:40:47;;;;;;;7.05;1.45;;;14.10;98.70;;;;;;5021176;28;20044;-65
2021/05/27 11:43:15;;;;;;;7.22;1.27;;;14.50;99.40;;;;;;5021205;28;20041;-65
2021/05/27 11:45:50;;;;;;;5.80;1.20;;;14.90;99.70;;;;;;5023441;28;20034;-65
2021/05/27 11:48:31;;;;;;;7.80;1.58;;;15.10;99.30;;;;;;5019285;28;20492;-65
2021/05/27 11:51:19;;;;;;;6.28;1.35;;;15.10;94.00;;;;;;5030428;28;20042;-65
2021/05/27 11:53:58;;;;;;;7.40;1.58;;;14.70;94.20;;;;;;5029061;28;20034;-65
2021/05/27 11:56:29;;;;;;;7.20;1.40;;;14.20;96.80;;;;;;5039478;28;20053;-65
2021/05/27 11:58:55;;;;;;;5.30;1.38;;;13.90;98.60;;;;;;5023681;28;20037;-64
2021/05/27 12:01:23;;;;;;;7.88;1.55;;;13.60;98.90;;;;;;5031996;28;20037;-64
2021/05/27 12:04:04;;;;;;;9.40;2.03;;;13.40;99.30;;;;;;5030044;28;20453;-65
2021/05/27 12:06:45;;;;;;;7.93;2.03;;;13.50;99.90;;;;;;5043828;28;20082;-64
2021/05/27 12:09:12;;;;;;;8.55;1.83;;;13.60;99.90;;;;;;5028700;28;20079;-64
2021/05/27 12:11:39;;;;;;;9.55;1.92;;;13.70;99.90;;;;;;5026698;28;20033;-64
2021/05/27 12:14:04;;;;;;;7.80;1.92;;;13.70;99.90;;;;;;5026047;28;20048;-65
2021/05/27 12:16:36;;;;;;;9.50;2.28;;;13.70;99.70;;;;;;5033496;28;20042;-65
2021/05/27 12:19:07;;;;;;;8.55;1.65;;;13.70;99.90;;;;;;5028026;28;20056;-65
2021/05/27 12:21:35;;;;;;;6.53;1.27;;;14.10;99.90;;;;;;5030208;28;20068;-64
2021/05/27 12:24:02;;;;;;;5.25;1.13;;;14.40;99.00;;;;;;5026787;28;20081;-64
2021/05/27 12:26:28;;;;;;;2.95;0.70;;;14.00;98.00;;;;;;5042093;28;20072;-64
2021/05/27 12:28:55;;;;;;;3.65;0.93;;;13.30;97.50;;;;;;5023394;28;20046;-64
2021/05/27 12:31:21;;;;;;;4.25;0.70;;;12.80;98.70;;;;;;5029969;28;20036;-64
2021/05/27 12:33:50;;;;;;;4.93;0.70;;;12.50;99.90;;;;;;5024039;28;20397;-64
2021/05/27 12:36:16;;;;;;;6.82;1.20;;;12.20;99.50;;;;;;5038769;28;20057;-64
2021/05/27 12:38:49;;;;;;;4.68;0.98;;;12.20;99.90;;;;;;5026740;28;21032;-65
2021/05/27 12:41:17;;;;;;;4.50;1.48;;;12.20;99.90;;;;;;5032747;28;20068;-65
2021/05/27 12:43:51;;;;;;;6.35;1.75;;;12.40;99.90;;;;;;5032379;28;20048;-65
2021/05/27 12:46:29;;;;;;;;;;;12.60;99.90;;;;;;5045771;28;20113;-64
2021/05/27 12:48:57;;;;;;;4.22;1.05;;;12.80;99.90;;;;;;5028578;28;19991;-66
2021/05/27 12:51:26;;;;;;;6.72;1.38;;;13.00;99.90;;;;;;5030461;28;20041;-65
2021/05/27 12:53:54;;;;;;;7.38;1.85;;;13.10;99.90;;;;;;5029142;28;20068;-65
2021/05/27 12:56:22;;;;;;;5.53;1.48;;;13.10;99.90;;;;;;5029913;28;20083;-66
2021/05/27 12:59:05;;;;;;;5.95;1.30;;;13.20;99.90;;;;;;5026368;28;20045;-66
2021/05/27 13:01:33;;;;;;;5.03;1.45;;;13.10;99.90;;;;;;5025902;28;20045;-66
2021/05/27 13:03:59;;;;;;;7.90;2.20;;;13.10;99.90;;;;;;5037093;28;20034;-66